Time;durP1;ratioP1;P1;durP2;ratioP2;P2;SDS_P1;SDS_P2;PMS_P1;PMS_P2;Temp;Humidity;BMP_temperature;BMP_pressure;BME280_temperature;BME280_humidity;BME280_pressure;Samples;Min_cycle;Max_cycle;Signal;HPM_P1;HPM_P2
2021/06/21 00:00:00;;;;;;;0.20;0.20;;;22.00;99.90;;;;;;5072051;28;20099;-77
2021/06/21 00:02:26;;;;;;;0.85;0.30;;;21.90;99.90;;;;;;5037194;28;20040;-76
2021/06/21 00:04:54;;;;;;;0.10;0.10;;;22.00;99.90;;;;;;5037416;28;20498;-75
2021/06/21 00:07:20;;;;;;;6.35;2.33;;;22.00;99.90;;;;;;5037210;28;20090;-76
2021/06/21 00:09:46;;;;;;;4.13;2.45;;;21.90;99.90;;;;;;5037194;28;20052;-76
2021/06/21 00:12:14;;;;;;;0.52;0.52;;;21.90;99.90;;;;;;5071798;28;20025;-76
2021/06/21 00:14:41;;;;;;;0.25;0.25;;;21.70;99.90;;;;;;5054104;28;20016;-76
2021/06/21 00:17:07;;;;;;;0.10;0.10;;;21.60;99.90;;;;;;5053860;28;20024;-76
2021/06/21 00:19:33;;;;;;;0.90;0.20;;;21.60;99.90;;;;;;5071760;28;20029;-76
2021/06/21 00:22:04;;;;;;;0.00;0.00;;;21.50;99.90;;;;;;5071554;28;20033;-76
2021/06/21 00:24:30;;;;;;;0.20;0.20;;;21.40;99.90;;;;;;5071718;28;20021;-76
2021/06/21 00:26:56;;;;;;;0.68;0.68;;;21.30;99.90;;;;;;5053662;28;20043;-77
2021/06/21 00:29:22;;;;;;;0.10;0.10;;;21.40;99.90;;;;;;5071597;28;20024;-76
2021/06/21 00:31:48;;;;;;;2.38;1.95;;;21.30;99.90;;;;;;5071484;28;20029;-77
2021/06/21 00:34:14;;;;;;;29.85;3.95;;;21.50;99.90;;;;;;5053422;28;20031;-76
2021/06/21 00:36:40;;;;;;;0.08;0.08;;;21.40;99.90;;;;;;5041012;28;20028;-77
2021/06/21 00:39:08;;;;;;;0.10;0.10;;;21.60;99.90;;;;;;5075401;28;20024;-76
2021/06/21 00:41:36;;;;;;;4.90;1.20;;;21.60;99.90;;;;;;5040975;28;20130;-76
2021/06/21 00:44:02;;;;;;;0.30;0.30;;;21.50;99.90;;;;;;5057569;28;20035;-76
2021/06/21 00:46:28;;;;;;;0.30;0.30;;;21.40;99.90;;;;;;5057399;28;20017;-75
2021/06/21 00:48:54;;;;;;;2.13;0.75;;;21.40;99.90;;;;;;5075343;28;20017;-75
2021/06/21 00:51:20;;;;;;;0.10;0.10;;;21.40;99.90;;;;;;5057334;28;20081;-76
2021/06/21 00:53:47;;;;;;;0.20;0.20;;;21.40;99.90;;;;;;5057229;28;20028;-76
2021/06/21 00:56:13;;;;;;;0.15;0.15;;;21.20;99.90;;;;;;5057289;28;20029;-77
2021/06/21 00:58:39;;;;;;;1.40;1.20;;;21.00;99.90;;;;;;5074985;28;20021;-76
2021/06/21 01:01:06;;;;;;;0.28;0.28;;;21.20;99.90;;;;;;5056914;28;20020;-76
2021/06/21 01:03:32;;;;;;;0.10;0.10;;;21.30;99.90;;;;;;5057023;28;20031;-76
2021/06/21 01:05:58;;;;;;;17.70;1.45;;;21.30;99.90;;;;;;5057121;28;20115;-75
2021/06/21 01:08:23;;;;;;;0.17;0.17;;;21.30;99.90;;;;;;5057189;28;20025;-76
2021/06/21 01:10:51;;;;;;;1.52;0.45;;;21.30;99.90;;;;;;5075325;28;20472;-76
2021/06/21 01:13:36;;;;;;;0.00;0.00;;;21.10;99.90;;;;;;5074893;28;20496;-76
2021/06/21 01:16:25;;;;;;;0.00;0.00;;;20.80;99.90;;;;;;5074971;28;20020;-76
2021/06/21 01:19:08;;;;;;;0.00;0.00;;;20.80;99.90;;;;;;5074740;28;20024;-76
2021/06/21 01:22:08;;;;;;;0.05;0.05;;;21.10;99.90;;;;;;5074617;28;20050;-76
2021/06/21 01:25:01;;;;;;;0.00;0.00;;;21.30;99.90;;;;;;5017149;28;20033;-77
2021/06/21 01:27:30;;;;;;;0.00;0.00;;;21.40;99.90;;;;;;5074542;28;20027;-76
2021/06/21 01:30:08;;;;;;;0.10;0.10;;;21.30;99.90;;;;;;5056844;28;20020;-77
2021/06/21 01:32:51;;;;;;;0.00;0.00;;;21.30;99.90;;;;;;5074647;28;20100;-76
2021/06/21 01:35:21;;;;;;;1.60;0.63;;;21.40;99.90;;;;;;5056440;28;20028;-76
2021/06/21 01:37:51;;;;;;;3.17;1.17;;;21.30;99.90;;;;;;5056466;28;20043;-77
2021/06/21 01:40:20;;;;;;;0.85;0.52;;;20.90;99.90;;;;;;5056495;28;20020;-76
2021/06/21 01:42:50;;;;;;;26.17;3.50;;;20.60;99.90;;;;;;5056274;28;20024;-76
2021/06/21 01:45:18;;;;;;;0.33;0.23;;;20.60;99.90;;;;;;5056121;28;20141;-76
2021/06/21 01:47:48;;;;;;;0.00;0.00;;;20.60;99.90;;;;;;5074192;28;20028;-76
2021/06/21 01:50:19;;;;;;;0.05;0.03;;;20.80;99.90;;;;;;5039847;28;20024;-76
2021/06/21 01:52:50;;;;;;;0.10;0.10;;;20.90;99.90;;;;;;5056133;28;20032;-76
2021/06/21 01:55:20;;;;;;;0.22;0.22;;;21.00;99.90;;;;;;5056320;28;20024;-76
2021/06/21 01:57:47;;;;;;;0.10;0.10;;;20.90;99.90;;;;;;5056354;28;20376;-76
2021/06/21 02:00:14;;;;;;;0.08;0.08;;;20.80;99.90;;;;;;5074042;28;20028;-76
2021/06/21 02:02:41;;;;;;;0.00;0.00;;;20.90;99.90;;;;;;5073887;28;20028;-76
2021/06/21 02:05:08;;;;;;;0.10;0.10;;;21.10;99.90;;;;;;5074017;28;20024;-76
2021/06/21 02:07:34;;;;;;;0.10;0.10;;;21.30;99.90;;;;;;5073710;28;20385;-77
2021/06/21 02:10:02;;;;;;;0.05;0.05;;;21.50;99.90;;;;;;5074095;28;20067;-76
2021/06/21 02:12:28;;;;;;;0.00;0.00;;;21.30;99.90;;;;;;5073870;28;20396;-75
2021/06/21 02:14:55;;;;;;;0.08;0.08;;;21.30;99.90;;;;;;5073865;28;20029;-76
2021/06/21 02:17:23;;;;;;;0.00;0.00;;;21.50;99.90;;;;;;5039181;28;20021;-75
2021/06/21 02:19:54;;;;;;;0.05;0.05;;;21.60;99.90;;;;;;5055901;28;20024;-77
2021/06/21 02:22:24;;;;;;;0.20;0.20;;;21.60;99.90;;;;;;5055624;28;20048;-76
2021/06/21 02:24:52;;;;;;;0.20;0.20;;;21.70;99.90;;;;;;5073709;28;20027;-76
2021/06/21 02:27:19;;;;;;;0.00;0.00;;;21.70;99.90;;;;;;5038982;28;20115;-76
2021/06/21 02:29:48;;;;;;;1.08;1.08;;;21.80;99.90;;;;;;5073577;28;20052;-76
2021/06/21 02:32:13;;;;;;;2.47;1.60;;;21.80;99.90;;;;;;5073235;28;20060;-76
2021/06/21 02:34:39;;;;;;;0.45;0.45;;;21.60;99.90;;;;;;5055251;28;20067;-76
2021/06/21 02:37:05;;;;;;;10.40;2.58;;;21.30;99.90;;;;;;5073326;28;20416;-76
2021/06/21 02:39:31;;;;;;;0.10;0.10;;;21.30;99.90;;;;;;5073672;28;20368;-76
2021/06/21 02:41:57;;;;;;;0.10;0.10;;;21.30;99.90;;;;;;5073119;28;20052;-76
2021/06/21 02:44:23;;;;;;;0.10;0.10;;;21.30;99.90;;;;;;5038613;28;20024;-76
2021/06/21 02:46:49;;;;;;;0.10;0.10;;;21.40;99.90;;;;;;5055352;28;20025;-77
2021/06/21 02:49:15;;;;;;;0.00;0.00;;;21.40;99.90;;;;;;5055115;28;20072;-76
2021/06/21 02:51:49;;;;;;;0.05;0.05;;;21.40;99.90;;;;;;5055052;28;20457;-76
2021/06/21 02:54:44;;;;;;;0.00;0.00;;;21.40;99.90;;;;;;5073153;28;20028;-76
2021/06/21 02:57:26;;;;;;;0.75;0.75;;;21.50;99.90;;;;;;5042714;28;20086;-76
2021/06/21 02:59:53;;;;;;;0.10;0.10;;;21.60;99.90;;;;;;5055132;28;20032;-76
2021/06/21 03:02:20;;;;;;;0.00;0.00;;;21.60;99.90;;;;;;5054647;28;20427;-77
2021/06/21 03:04:47;;;;;;;0.10;0.10;;;21.50;99.90;;;;;;5054955;28;20020;-76
2021/06/21 03:07:17;;;;;;;0.00;0.00;;;21.40;99.90;;;;;;5072771;28;20031;-76
2021/06/21 03:09:47;;;;;;;119.45;72.03;;;21.50;99.90;;;;;;5054849;28;20032;-75
2021/06/21 03:12:25;;;;;;;0.10;0.10;;;21.50;99.90;;;;;;5055252;28;20028;-76
2021/06/21 03:14:51;;;;;;;0.00;0.00;;;21.60;99.90;;;;;;5072841;28;20090;-75
2021/06/21 03:17:18;;;;;;;0.10;0.10;;;21.60;99.90;;;;;;5072437;28;20028;-77
2021/06/21 03:19:45;;;;;;;0.00;0.00;;;21.40;99.90;;;;;;5072410;28;20025;-76
2021/06/21 03:22:11;;;;;;;0.10;0.10;;;21.20;99.90;;;;;;5037840;28;20100;-76
2021/06/21 03:24:37;;;;;;;14.60;9.07;;;21.40;99.90;;;;;;5054615;28;20024;-76
2021/06/21 03:27:04;;;;;;;0.00;0.00;;;21.30;99.90;;;;;;5037953;28;20032;-76
2021/06/21 03:29:30;;;;;;;0.00;0.00;;;21.30;99.90;;;;;;5037664;28;20073;-76
2021/06/21 03:31:56;;;;;;;0.10;0.10;;;21.20;99.90;;;;;;5072209;28;20029;-76
2021/06/21 03:34:24;;;;;;;0.70;0.55;;;21.10;99.90;;;;;;5037506;28;20086;-76
2021/06/21 03:36:51;;;;;;;0.05;0.05;;;20.90;99.90;;;;;;5054210;28;20024;-77
2021/06/21 03:39:17;;;;;;;0.10;0.10;;;20.90;99.90;;;;;;5072141;28;20103;-76
2021/06/21 03:41:46;;;;;;;0.10;0.10;;;21.00;99.90;;;;;;5054129;28;20033;-76
2021/06/21 03:44:11;;;;;;;0.10;0.10;;;21.20;99.90;;;;;;5054195;28;20476;-76
2021/06/21 03:46:37;;;;;;;6.35;2.53;;;21.10;99.90;;;;;;5037480;28;20031;-77
2021/06/21 03:49:03;;;;;;;0.30;0.30;;;21.10;99.90;;;;;;5053946;28;20487;-75
2021/06/21 03:51:29;;;;;;;0.17;0.17;;;21.00;99.90;;;;;;5071959;28;20739;-76
2021/06/21 03:53:55;;;;;;;0.05;0.05;;;20.90;99.90;;;;;;5054204;28;20031;-76
2021/06/21 03:56:21;;;;;;;0.20;0.20;;;20.90;99.90;;;;;;5072066;28;20028;-76
2021/06/21 03:58:50;;;;;;;0.10;0.10;;;20.90;99.90;;;;;;5037139;28;20051;-76
2021/06/21 04:01:16;;;;;;;0.20;0.20;;;20.90;99.90;;;;;;5053908;28;20081;-76
2021/06/21 04:03:42;;;;;;;1.70;0.47;;;20.90;99.90;;;;;;5037148;28;20036;-77
2021/06/21 04:06:08;;;;;;;2.03;0.52;;;21.00;99.90;;;;;;5037338;28;20385;-76
2021/06/21 04:08:34;;;;;;;2.08;0.50;;;21.00;99.90;;;;;;5036935;28;20061;-76
2021/06/21 04:11:00;;;;;;;4.38;1.45;;;21.10;99.90;;;;;;5053915;28;20028;-77
2021/06/21 04:13:26;;;;;;;0.13;0.13;;;21.10;99.90;;;;;;5071700;28;20027;-76
2021/06/21 04:15:52;;;;;;;0.05;0.05;;;21.10;99.90;;;;;;5037206;28;20116;-77
2021/06/21 04:18:18;;;;;;;0.43;0.43;;;21.20;99.90;;;;;;5071561;28;20163;-76
2021/06/21 04:20:45;;;;;;;0.05;0.05;;;21.20;99.90;;;;;;5071695;28;20032;-76
2021/06/21 04:23:12;;;;;;;9.80;2.65;;;21.30;99.90;;;;;;5053643;28;20503;-76
2021/06/21 04:25:38;;;;;;;0.22;0.22;;;21.40;99.90;;;;;;5053691;28;20112;-76
2021/06/21 04:28:07;;;;;;;0.03;0.03;;;21.40;99.90;;;;;;5071448;28;20027;-77
2021/06/21 04:30:33;;;;;;;0.10;0.10;;;21.40;99.90;;;;;;5053722;28;20031;-76
2021/06/21 04:32:59;;;;;;;0.95;0.95;;;21.30;99.90;;;;;;5071467;28;20078;-75
2021/06/21 04:35:26;;;;;;;0.08;0.08;;;21.40;99.90;;;;;;5053458;28;20024;-76
2021/06/21 04:37:53;;;;;;;0.20;0.20;;;21.20;99.90;;;;;;5071361;28;20025;-76
2021/06/21 04:40:21;;;;;;;0.20;0.15;;;21.00;99.90;;;;;;5053310;28;20025;-76
2021/06/21 04:42:47;;;;;;;5.88;1.63;;;21.10;99.90;;;;;;5053650;28;20518;-76
2021/06/21 04:45:14;;;;;;;0.40;0.40;;;21.10;99.90;;;;;;5071795;28;20024;-76
2021/06/21 04:47:41;;;;;;;1.17;0.40;;;21.10;99.90;;;;;;5071268;28;20025;-76
2021/06/21 04:50:10;;;;;;;7.10;1.45;;;21.10;99.90;;;;;;5071458;28;20065;-76
2021/06/21 04:52:37;;;;;;;0.10;0.10;;;21.20;99.90;;;;;;5053241;28;20024;-76
2021/06/21 04:55:05;;;;;;;0.00;0.00;;;21.20;99.90;;;;;;5053541;28;20027;-76
2021/06/21 04:57:32;;;;;;;0.00;0.00;;;21.20;99.90;;;;;;5071273;28;20434;-76
2021/06/21 04:59:59;;;;;;;0.08;0.08;;;21.40;99.90;;;;;;5053462;28;20092;-76
2021/06/21 05:02:25;;;;;;;0.00;0.00;;;21.50;99.90;;;;;;5071284;28;20435;-76
2021/06/21 05:04:51;;;;;;;0.00;0.00;;;21.80;99.90;;;;;;5053271;28;20048;-76
2021/06/21 05:07:17;;;;;;;0.17;0.17;;;21.70;99.90;;;;;;5071057;28;20021;-77
2021/06/21 05:09:43;;;;;;;0.00;0.00;;;21.80;99.90;;;;;;5053368;28;20450;-76
2021/06/21 05:12:12;;;;;;;1.13;0.45;;;21.80;99.90;;;;;;5053216;28;20025;-75
2021/06/21 05:14:38;;;;;;;0.00;0.00;;;21.80;99.90;;;;;;5071169;28;20021;-76
2021/06/21 05:17:07;;;;;;;8.38;1.27;;;21.60;99.90;;;;;;5071101;28;20499;-76
2021/06/21 05:19:35;;;;;;;5.60;5.05;;;21.50;99.90;;;;;;5053072;28;20396;-75
2021/06/21 05:22:02;;;;;;;3.03;0.70;;;21.60;99.90;;;;;;5055706;28;20021;-75
2021/06/21 05:24:28;;;;;;;3.33;1.48;;;21.50;99.90;;;;;;5056777;28;20488;-76
2021/06/21 05:26:53;;;;;;;0.00;0.00;;;21.40;99.90;;;;;;5074578;28;20108;-76
2021/06/21 05:29:19;;;;;;;0.85;0.85;;;21.10;99.90;;;;;;5074421;28;20020;-76
2021/06/21 05:31:45;;;;;;;0.10;0.10;;;21.30;99.90;;;;;;5074613;28;20398;-76
2021/06/21 05:34:10;;;;;;;0.00;0.00;;;21.50;99.90;;;;;;5039847;28;20028;-76
2021/06/21 05:36:36;;;;;;;0.20;0.20;;;21.50;99.90;;;;;;5074554;28;20028;-75
2021/06/21 05:39:03;;;;;;;0.00;0.00;;;21.50;99.90;;;;;;5074340;28;20021;-76
2021/06/21 05:41:30;;;;;;;0.00;0.00;;;21.50;99.90;;;;;;5074427;28;20025;-76
2021/06/21 05:43:55;;;;;;;0.00;0.00;;;21.40;99.90;;;;;;5074565;28;20017;-76
2021/06/21 05:46:21;;;;;;;0.00;0.00;;;21.30;99.90;;;;;;5074222;28;20029;-76
2021/06/21 05:48:47;;;;;;;0.30;0.30;;;21.50;99.90;;;;;;5056111;28;20471;-76
2021/06/21 05:51:13;;;;;;;2.35;0.70;;;21.80;99.90;;;;;;5074030;28;20056;-76
2021/06/21 05:53:38;;;;;;;0.00;0.00;;;22.00;99.90;;;;;;5056013;28;20024;-76
2021/06/21 05:56:04;;;;;;;0.20;0.10;;;21.90;99.90;;;;;;5074102;28;20104;-77
2021/06/21 05:58:30;;;;;;;0.00;0.00;;;22.00;99.90;;;;;;5074102;28;20024;-77
2021/06/21 06:00:56;;;;;;;0.47;0.47;;;22.20;99.90;;;;;;5073970;28;20028;-76
2021/06/21 06:03:22;;;;;;;0.00;0.00;;;22.40;99.90;;;;;;5073886;28;20471;-76
2021/06/21 06:05:47;;;;;;;0.10;0.10;;;22.60;99.90;;;;;;5070735;28;20468;-76
2021/06/21 06:08:13;;;;;;;0.08;0.08;;;22.60;95.80;;;;;;5030271;28;20452;-76
2021/06/21 06:10:39;;;;;;;0.10;0.10;;;22.20;94.50;;;;;;5042357;28;20033;-76
2021/06/21 06:13:05;;;;;;;0.10;0.10;;;22.30;95.00;;;;;;5035600;28;20032;-77
2021/06/21 06:15:31;;;;;;;0.00;0.00;;;22.40;95.20;;;;;;5037432;28;20027;-77
2021/06/21 06:17:57;;;;;;;0.00;0.00;;;22.60;93.60;;;;;;5073693;28;20024;-77
2021/06/21 06:20:23;;;;;;;0.00;0.00;;;22.80;91.60;;;;;;5066767;28;20541;-76
2021/06/21 06:22:49;;;;;;;0.00;0.00;;;22.90;89.80;;;;;;5038405;28;20380;-77
2021/06/21 06:25:16;;;;;;;2.03;0.77;;;23.00;88.30;;;;;;5035673;28;20025;-76
2021/06/21 06:27:42;;;;;;;0.80;0.20;;;22.90;86.90;;;;;;5041192;28;20017;-76
2021/06/21 06:30:09;;;;;;;3.03;0.50;;;23.00;86.70;;;;;;5055522;28;20029;-76
2021/06/21 06:32:36;;;;;;;0.22;0.20;;;22.90;87.00;;;;;;5055244;28;20029;-76
2021/06/21 06:35:03;;;;;;;0.90;0.80;;;22.90;87.00;;;;;;5055255;28;20020;-76
2021/06/21 06:37:29;;;;;;;3.63;0.52;;;22.90;84.20;;;;;;5072503;28;20490;-77
2021/06/21 06:39:55;;;;;;;0.00;0.00;;;23.20;82.50;;;;;;5054635;28;20062;-76
2021/06/21 06:42:21;;;;;;;0.00;0.00;;;23.30;81.00;;;;;;5046467;28;20119;-76
2021/06/21 06:44:47;;;;;;;0.00;0.00;;;23.50;80.50;;;;;;5060100;28;20169;-76
2021/06/21 06:47:13;;;;;;;1.88;1.75;;;23.60;77.60;;;;;;5083517;28;20107;-76
2021/06/21 06:49:38;;;;;;;0.00;0.00;;;23.70;77.30;;;;;;5082507;28;20028;-76
2021/06/21 06:52:04;;;;;;;3.17;0.32;;;23.90;76.60;;;;;;5085805;28;20024;-75
2021/06/21 06:54:45;;;;;;;0.00;0.00;;;24.00;75.40;;;;;;5069882;28;20024;-76
2021/06/21 06:57:12;;;;;;;5.25;1.35;;;24.10;74.50;;;;;;5055263;28;20488;-76
2021/06/21 06:59:39;;;;;;;0.00;0.00;;;23.60;74.30;;;;;;5050514;28;20484;-77
2021/06/21 07:02:08;;;;;;;0.45;0.45;;;23.50;73.20;;;;;;5072878;28;20100;-77
2021/06/21 07:04:36;;;;;;;0.10;0.10;;;23.60;73.30;;;;;;5060107;28;20090;-77
2021/06/21 07:07:03;;;;;;;3.63;3.35;;;23.70;73.40;;;;;;5055291;28;20020;-76
2021/06/21 07:09:30;;;;;;;0.00;0.00;;;23.80;73.30;;;;;;5086003;28;20024;-77
2021/06/21 07:11:58;;;;;;;2.03;0.82;;;23.90;72.20;;;;;;5060644;28;20035;-77
2021/06/21 07:14:24;;;;;;;0.00;0.00;;;23.90;71.00;;;;;;5085717;28;20028;-77
2021/06/21 07:16:50;;;;;;;0.00;0.00;;;24.10;71.00;;;;;;5062848;28;20024;-76
2021/06/21 07:19:18;;;;;;;0.50;0.38;;;24.30;69.90;;;;;;5081325;28;20035;-77
2021/06/21 07:21:44;;;;;;;0.05;0.05;;;24.10;70.20;;;;;;5085370;28;20046;-77
2021/06/21 07:24:11;;;;;;;0.00;0.00;;;24.20;70.50;;;;;;5047266;28;20111;-77
2021/06/21 07:26:38;;;;;;;0.00;0.00;;;24.50;68.70;;;;;;5063664;28;20494;-77
2021/06/21 07:29:05;;;;;;;0.00;0.00;;;24.70;67.00;;;;;;5066067;28;20016;-77
2021/06/21 07:31:32;;;;;;;0.00;0.00;;;24.70;67.00;;;;;;5064016;28;20124;-77
2021/06/21 07:33:59;;;;;;;2.95;0.47;;;24.80;67.20;;;;;;5058117;28;20584;-77
2021/06/21 07:36:25;;;;;;;0.95;0.28;;;24.80;65.60;;;;;;5046581;28;20028;-77
2021/06/21 07:38:51;;;;;;;0.03;0.03;;;24.90;64.80;;;;;;5061275;28;20496;-77
2021/06/21 07:41:17;;;;;;;0.00;0.00;;;24.90;66.00;;;;;;5057849;28;20063;-77
2021/06/21 07:43:44;;;;;;;0.00;0.00;;;25.00;65.20;;;;;;5074712;28;20338;-77
2021/06/21 07:46:09;;;;;;;0.00;0.00;;;25.20;65.10;;;;;;5081606;28;20016;-76
2021/06/21 07:48:40;;;;;;;0.00;0.00;;;25.50;63.60;;;;;;5077982;28;20077;-76
2021/06/21 07:51:07;;;;;;;0.47;0.47;;;25.70;63.80;;;;;;5086105;28;20017;-76
2021/06/21 07:53:34;;;;;;;0.05;0.05;;;25.40;62.20;;;;;;5084492;28;20596;-76
2021/06/21 07:56:00;;;;;;;0.00;0.00;;;25.50;60.20;;;;;;5065322;28;20024;-76
2021/06/21 07:58:26;;;;;;;0.00;0.00;;;25.70;62.10;;;;;;5079394;28;20136;-76
2021/06/21 08:00:52;;;;;;;0.00;0.00;;;25.90;61.60;;;;;;5062684;28;20024;-77
2021/06/21 08:03:17;;;;;;;0.00;0.00;;;26.20;61.00;;;;;;5065120;28;20032;-77
2021/06/21 08:05:48;;;;;;;0.00;0.00;;;26.20;60.10;;;;;;5065785;28;20035;-77
2021/06/21 08:08:13;;;;;;;0.00;0.00;;;25.90;60.50;;;;;;5043538;28;20028;-76
2021/06/21 08:10:39;;;;;;;0.10;0.10;;;25.90;61.00;;;;;;5081707;28;20033;-77
2021/06/21 08:13:05;;;;;;;1.85;0.38;;;26.00;59.50;;;;;;5052431;28;20059;-76
2021/06/21 08:15:31;;;;;;;18.98;1.55;;;26.00;58.80;;;;;;5063506;28;20063;-77
2021/06/21 08:17:57;;;;;;;0.00;0.00;;;26.10;58.60;;;;;;5052123;28;20028;-77
2021/06/21 08:20:22;;;;;;;0.00;0.00;;;26.30;58.00;;;;;;5063161;28;20059;-77
2021/06/21 08:22:48;;;;;;;0.10;0.10;;;26.50;58.50;;;;;;5065538;28;20237;-77
2021/06/21 08:25:14;;;;;;;0.00;0.00;;;26.60;58.40;;;;;;5081009;28;20027;-77
2021/06/21 08:27:40;;;;;;;0.00;0.00;;;26.50;58.80;;;;;;5084453;28;20020;-78
2021/06/21 08:30:07;;;;;;;8.88;0.70;;;26.70;58.70;;;;;;5062371;28;20016;-77
2021/06/21 08:32:33;;;;;;;4.65;2.17;;;26.90;57.70;;;;;;5072974;28;20032;-77
2021/06/21 08:34:59;;;;;;;0.00;0.00;;;27.00;56.50;;;;;;5086162;28;20046;-76
2021/06/21 08:37:25;;;;;;;0.00;0.00;;;27.40;57.10;;;;;;5059929;28;20086;-78
2021/06/21 08:39:52;;;;;;;0.00;0.00;;;27.50;56.00;;;;;;5044149;28;20051;-76
2021/06/21 08:42:19;;;;;;;0.00;0.00;;;27.60;55.80;;;;;;5050360;28;20093;-77
2021/06/21 08:44:46;;;;;;;0.00;0.00;;;27.70;55.90;;;;;;5060704;28;20179;-77
2021/06/21 08:47:18;;;;;;;0.10;0.10;;;27.70;54.80;;;;;;5066922;28;20086;-77
2021/06/21 08:49:46;;;;;;;2.55;2.03;;;27.70;55.00;;;;;;5084608;28;20089;-77
2021/06/21 08:52:15;;;;;;;0.00;0.00;;;27.70;55.10;;;;;;5052887;28;20036;-76
2021/06/21 08:54:41;;;;;;;0.00;0.00;;;27.70;55.30;;;;;;5055802;28;20028;-77
2021/06/21 08:57:08;;;;;;;0.00;0.00;;;27.70;54.70;;;;;;5087204;28;20092;-77
2021/06/21 08:59:34;;;;;;;0.00;0.00;;;27.90;55.40;;;;;;5077089;28;20357;-77
2021/06/21 09:02:00;;;;;;;0.00;0.00;;;28.00;53.70;;;;;;5048828;28;20032;-77
2021/06/21 09:04:28;;;;;;;0.10;0.10;;;28.10;53.50;;;;;;5060875;28;20111;-77
2021/06/21 09:07:12;;;;;;;6.60;1.13;;;28.20;53.80;;;;;;5087892;28;20044;-77
2021/06/21 09:09:38;;;;;;;0.00;0.00;;;28.30;53.30;;;;;;5057312;28;20024;-78
2021/06/21 09:12:04;;;;;;;0.00;0.00;;;28.20;53.20;;;;;;5084342;28;20020;-78
2021/06/21 09:14:32;;;;;;;0.00;0.00;;;28.10;55.20;;;;;;5065291;28;20059;-76
2021/06/21 09:17:08;;;;;;;0.00;0.00;;;28.40;53.70;;;;;;5062059;28;20033;-77
2021/06/21 09:19:50;;;;;;;0.05;0.05;;;27.90;53.90;;;;;;5069715;28;20028;-77
2021/06/21 09:22:33;;;;;;;0.00;0.00;;;28.20;54.00;;;;;;5041803;28;20545;-77
2021/06/21 09:25:21;;;;;;;0.00;0.00;;;28.50;54.10;;;;;;5083496;28;20071;-77
2021/06/21 09:28:13;;;;;;;0.47;0.47;;;28.60;53.20;;;;;;5074151;28;20016;-77
2021/06/21 09:30:50;;;;;;;0.00;0.00;;;28.40;52.60;;;;;;5062391;28;20123;-77
2021/06/21 09:33:29;;;;;;;0.00;0.00;;;28.60;52.20;;;;;;5061822;28;20135;-76
2021/06/21 09:35:56;;;;;;;0.00;0.00;;;28.40;52.90;;;;;;5061519;28;20028;-77
2021/06/21 09:38:21;;;;;;;0.00;0.00;;;28.90;52.80;;;;;;5064142;28;20081;-75
2021/06/21 09:40:50;;;;;;;0.00;0.00;;;29.20;51.80;;;;;;5089563;28;20032;-77
2021/06/21 09:43:19;;;;;;;0.00;0.00;;;29.50;52.40;;;;;;5062715;28;20060;-77
2021/06/21 09:46:20;;;;;;;1.00;0.30;;;29.10;51.40;;;;;;5069466;28;20024;-77
2021/06/21 09:48:50;;;;;;;0.00;0.00;;;28.70;51.10;;;;;;5010642;28;20032;-77
2021/06/21 09:51:25;;;;;;;0.38;0.38;;;28.60;51.10;;;;;;5068599;28;20115;-77
2021/06/21 09:53:53;;;;;;;0.00;0.00;;;28.90;51.30;;;;;;5071227;28;20029;-77
2021/06/21 09:56:50;;;;;;;0.35;0.35;;;29.30;50.20;;;;;;5069634;28;20035;-76
2021/06/21 09:59:34;;;;;;;0.00;0.00;;;29.50;49.40;;;;;;5046661;28;20180;-77
2021/06/21 10:02:14;;;;;;;0.00;0.00;;;29.10;50.40;;;;;;5080512;28;20024;-76
2021/06/21 10:04:42;;;;;;;0.00;0.00;;;28.70;50.80;;;;;;5067513;28;20028;-77
2021/06/21 10:07:26;;;;;;;0.52;0.32;;;28.40;51.50;;;;;;5049637;28;20031;-77
2021/06/21 10:09:54;;;;;;;0.00;0.00;;;28.60;52.80;;;;;;5064617;28;20020;-76
2021/06/21 10:12:21;;;;;;;0.55;0.38;;;29.10;52.00;;;;;;5068595;28;20162;-77
2021/06/21 10:14:47;;;;;;;1.45;1.35;;;29.60;50.40;;;;;;5079906;28;20036;-77
2021/06/21 10:17:13;;;;;;;0.20;0.20;;;30.10;49.10;;;;;;5085051;28;20021;-76
2021/06/21 10:19:39;;;;;;;11.60;0.55;;;30.50;48.70;;;;;;5080182;28;20090;-77
2021/06/21 10:22:07;;;;;;;0.00;0.00;;;30.60;48.00;;;;;;5059866;28;20029;-77
2021/06/21 10:24:33;;;;;;;0.00;0.00;;;30.80;48.80;;;;;;5063457;28;20016;-77
2021/06/21 10:27:00;;;;;;;0.00;0.00;;;31.50;47.20;;;;;;5082303;28;20025;-76
2021/06/21 10:29:26;;;;;;;0.00;0.00;;;31.30;46.70;;;;;;5048308;28;20127;-77
2021/06/21 10:31:53;;;;;;;0.00;0.00;;;31.30;46.80;;;;;;5059511;28;20032;-76
2021/06/21 10:34:19;;;;;;;0.00;0.00;;;31.50;46.90;;;;;;5059310;28;20033;-77
2021/06/21 10:36:52;;;;;;;0.00;0.00;;;31.90;46.10;;;;;;5077582;28;20025;-78
2021/06/21 10:39:28;;;;;;;1.23;0.45;;;31.90;45.60;;;;;;5038225;28;20028;-77
2021/06/21 10:42:06;;;;;;;1.00;1.00;;;31.70;44.80;;;;;;5068379;28;20536;-77
2021/06/21 10:44:39;;;;;;;1.45;0.65;;;31.80;46.40;;;;;;5084312;28;20028;-76
2021/06/21 10:47:24;;;;;;;2.63;0.52;;;31.80;45.40;;;;;;5058346;28;20016;-76
2021/06/21 10:49:55;;;;;;;0.00;0.00;;;31.70;45.00;;;;;;5078130;28;20050;-77
2021/06/21 10:52:30;;;;;;;0.00;0.00;;;31.70;45.60;;;;;;5067770;28;20074;-76
2021/06/21 10:55:29;;;;;;;0.70;0.22;;;31.00;46.60;;;;;;5047114;28;20025;-77
2021/06/21 10:57:58;;;;;;;2.05;0.10;;;31.60;46.20;;;;;;5073000;28;20434;-78
2021/06/21 11:00:36;;;;;;;1.80;0.95;;;31.70;45.30;;;;;;5075790;28;20032;-77
2021/06/21 11:03:21;;;;;;;2.85;1.20;;;31.60;45.40;;;;;;5051467;28;20408;-77
2021/06/21 11:05:47;;;;;;;1.45;0.38;;;31.90;45.50;;;;;;5059949;28;20052;-77
2021/06/21 11:08:20;;;;;;;0.00;0.00;;;31.90;45.30;;;;;;5076609;28;20048;-77
2021/06/21 11:10:52;;;;;;;14.25;6.22;;;31.90;45.60;;;;;;5052255;28;20059;-77
2021/06/21 11:13:34;;;;;;;0.30;0.03;;;31.70;46.30;;;;;;5048813;28;20028;-78
2021/06/21 11:16:15;;;;;;;0.20;0.20;;;31.80;46.00;;;;;;5081701;28;20048;-76
2021/06/21 11:18:41;;;;;;;0.00;0.00;;;31.90;46.10;;;;;;5059777;28;20031;-76
2021/06/21 11:21:20;;;;;;;0.32;0.32;;;32.00;45.20;;;;;;5070570;28;20028;-77
2021/06/21 11:23:51;;;;;;;0.00;0.00;;;32.00;45.70;;;;;;5081605;28;20050;-76
2021/06/21 11:26:18;;;;;;;0.45;0.45;;;32.40;44.50;;;;;;5041626;28;20488;-77
2021/06/21 11:28:49;;;;;;;0.00;0.00;;;32.50;43.60;;;;;;5080976;28;20024;-76
2021/06/21 11:31:18;;;;;;;;;;;31.80;44.70;;;;;;5059960;28;20024;-76
2021/06/21 11:33:56;;;;;;;0.08;0.05;;;31.40;46.40;;;;;;5077127;28;19907;-77
2021/06/21 11:36:38;;;;;;;2.35;1.05;;;31.60;46.30;;;;;;5067683;28;20028;-76
2021/06/21 11:39:28;;;;;;;0.38;0.38;;;32.00;45.60;;;;;;5081366;28;20020;-77
2021/06/21 11:41:54;;;;;;;0.00;0.00;;;31.70;45.50;;;;;;5083193;28;20032;-76
2021/06/21 11:44:38;;;;;;;1.45;1.35;;;31.70;45.60;;;;;;5069515;28;20353;-76
2021/06/21 11:47:25;;;;;;;0.43;0.32;;;31.10;46.50;;;;;;5081902;28;20020;-77
2021/06/21 11:50:07;;;;;;;0.00;0.00;;;31.50;46.30;;;;;;5054728;28;20024;-77
2021/06/21 11:52:33;;;;;;;0.10;0.10;;;31.20;45.90;;;;;;5080729;28;20024;-76
2021/06/21 11:55:15;;;;;;;0.00;0.00;;;31.30;46.00;;;;;;5080980;28;20409;-77
2021/06/21 11:57:42;;;;;;;0.00;0.00;;;31.70;45.80;;;;;;5076082;28;20032;-77
2021/06/21 12:00:08;;;;;;;0.00;0.00;;;32.00;45.00;;;;;;5076357;28;20373;-77
2021/06/21 12:02:34;;;;;;;21.30;11.52;;;31.80;44.70;;;;;;5083387;28;20032;-77
2021/06/21 12:05:12;;;;;;;0.00;0.00;;;32.00;44.10;;;;;;5054262;28;20057;-77
2021/06/21 12:07:42;;;;;;;0.00;0.00;;;32.00;43.80;;;;;;5080517;28;20020;-77
2021/06/21 12:10:19;;;;;;;0.00;0.00;;;31.60;45.10;;;;;;5063987;28;20025;-77
2021/06/21 12:12:47;;;;;;;0.00;0.00;;;31.60;45.80;;;;;;5082728;28;20028;-76
2021/06/21 12:15:26;;;;;;;0.30;0.13;;;31.60;45.50;;;;;;5066204;28;20032;-77
2021/06/21 12:17:53;;;;;;;0.55;0.10;;;31.70;45.20;;;;;;5079316;28;20028;-77
2021/06/21 12:20:19;;;;;;;0.47;0.20;;;31.50;45.80;;;;;;5081894;28;20020;-78
2021/06/21 12:22:55;;;;;;;0.00;0.00;;;31.10;46.20;;;;;;5078027;28;20028;-77
2021/06/21 12:25:23;;;;;;;7.03;2.60;;;30.60;47.20;;;;;;5076440;28;20092;-78
2021/06/21 12:27:49;;;;;;;0.00;0.00;;;30.40;47.80;;;;;;5079052;28;20085;-77
2021/06/21 12:30:15;;;;;;;0.00;0.00;;;30.60;47.80;;;;;;5061871;28;20023;-78
2021/06/21 12:32:41;;;;;;;0.40;0.40;;;30.70;47.70;;;;;;5090085;28;20024;-77
2021/06/21 12:35:08;;;;;;;0.00;0.00;;;31.00;47.20;;;;;;5091053;28;20020;-78
2021/06/21 12:37:35;;;;;;;0.10;0.10;;;30.90;46.80;;;;;;5067428;28;20029;-77
2021/06/21 12:40:01;;;;;;;0.08;0.08;;;30.80;47.00;;;;;;5080023;28;20478;-77
2021/06/21 12:42:32;;;;;;;0.00;0.00;;;31.10;46.90;;;;;;5083803;28;20032;-77
2021/06/21 12:45:12;;;;;;;;;;;31.00;46.60;;;;;;5050576;28;20024;-78
2021/06/21 12:47:46;;;;;;;0.17;0.10;;;31.30;46.90;;;;;;5070430;28;19908;-77
2021/06/21 12:50:14;;;;;;;0.35;0.22;;;31.40;46.60;;;;;;5055111;28;20020;-77
2021/06/21 12:52:45;;;;;;;9.23;0.55;;;31.10;46.90;;;;;;5076668;28;20438;-77
2021/06/21 12:55:14;;;;;;;0.00;0.00;;;31.00;47.60;;;;;;5066342;28;20480;-77
2021/06/21 12:57:54;;;;;;;0.00;0.00;;;30.90;48.10;;;;;;5048789;28;20032;-77